Time;durP1;ratioP1;P1;durP2;ratioP2;P2;SDS_P1;SDS_P2;PMS_P1;PMS_P2;Temp;Humidity;BMP_temperature;BMP_pressure;BME280_temperature;BME280_humidity;BME280_pressure;Samples;Min_cycle;Max_cycle;Signal;HPM_P1;HPM_P2
2023/03/13 00:01:40;;;;;;;3.17;2.27;;;0.00;99.90;0.60;96778.00;;;;4965262;28;20447;-75
2023/03/13 00:04:28;;;;;;;5.57;2.83;;;0.00;99.90;0.60;96774.00;;;;4966733;28;20442;-72
2023/03/13 00:07:17;;;;;;;4.97;2.97;;;-0.10;99.90;0.50;96779.00;;;;4966106;28;20443;-69
2023/03/13 00:10:08;;;;;;;3.63;2.50;;;0.00;99.90;0.90;96778.00;;;;4964394;28;20807;-70
2023/03/13 00:12:56;;;;;;;3.87;3.03;;;0.00;99.90;0.80;96777.00;;;;4988507;28;20982;-71
2023/03/13 00:15:46;;;;;;;3.60;3.00;;;0.00;99.90;0.90;96787.00;;;;4966792;28;20424;-71
2023/03/13 00:18:36;;;;;;;3.60;2.87;;;0.20;99.90;0.90;96783.00;;;;4967735;28;20930;-70
2023/03/13 00:21:28;;;;;;;3.10;2.70;;;0.30;99.90;0.80;96779.00;;;;4973382;28;20451;-70
2023/03/13 00:24:17;;;;;;;3.80;2.23;;;0.10;99.90;0.50;96775.00;;;;4994771;28;20427;-72
2023/03/13 00:27:05;;;;;;;3.30;2.90;;;0.10;99.90;0.60;96774.00;;;;4993182;28;20422;-71
2023/03/13 00:29:54;;;;;;;6.70;3.60;;;0.00;99.90;0.60;96768.00;;;;4966155;28;20443;-68
2023/03/13 00:32:47;;;;;;;2.70;1.80;;;0.00;99.90;0.50;96763.00;;;;4971531;28;20475;-69
2023/03/13 00:35:36;;;;;;;2.63;1.97;;;0.00;99.90;0.40;96749.00;;;;4987297;28;20845;-70
2023/03/13 00:38:24;;;;;;;2.27;2.17;;;-0.10;99.90;0.10;96747.00;;;;4966894;28;20427;-74
2023/03/13 00:41:16;;;;;;;2.50;2.30;;;-0.10;99.90;-0.10;96742.00;;;;4993747;28;20512;-74
2023/03/13 00:44:04;;;;;;;3.03;1.73;;;-0.20;99.90;0.30;96741.00;;;;4964155;28;20431;-72
2023/03/13 00:46:53;;;;;;;1.93;1.77;;;-0.30;99.90;0.00;96746.00;;;;4966683;28;20439;-75
2023/03/13 00:49:43;;;;;;;3.13;2.43;;;-0.40;99.90;0.20;96749.00;;;;4966679;28;20450;-72
2023/03/13 00:52:32;;;;;;;2.30;2.10;;;-0.40;99.90;0.30;96748.00;;;;4967333;28;20489;-72
2023/03/13 00:55:21;;;;;;;4.10;2.40;;;-0.40;99.90;0.00;96741.00;;;;4970401;28;20613;-74
2023/03/13 00:58:10;;;;;;;3.37;2.57;;;-0.40;99.90;0.70;96746.00;;;;4964479;28;20439;-70
2023/03/13 01:01:07;;;;;;;5.40;3.00;;;-0.30;99.90;0.80;96742.00;;;;4966844;28;20478;-70
2023/03/13 01:03:57;;;;;;;1.80;1.70;;;-0.20;99.90;0.70;96735.00;;;;4961715;28;20427;-70
2023/03/13 01:06:48;;;;;;;4.10;2.20;;;-0.10;99.90;0.80;96734.00;;;;4966534;28;20420;-70
2023/03/13 01:09:36;;;;;;;3.03;2.33;;;-0.10;99.90;0.70;96727.00;;;;4962651;28;20434;-70
2023/03/13 01:12:25;;;;;;;2.63;1.47;;;-0.10;99.90;0.00;96727.00;;;;4966760;28;20485;-75
2023/03/13 01:15:15;;;;;;;3.70;2.20;;;-0.20;99.90;0.10;96726.00;;;;4964450;28;20447;-68
2023/03/13 01:18:04;;;;;;;2.27;2.17;;;-0.40;99.90;0.40;96726.00;;;;4967563;28;20432;-69
2023/03/13 01:20:53;;;;;;;5.17;2.57;;;-0.30;99.90;0.40;96723.00;;;;4966762;28;20946;-69
2023/03/13 01:23:44;;;;;;;4.03;2.00;;;-0.40;99.90;0.10;96729.00;;;;4966632;28;20427;-69
2023/03/13 01:26:33;;;;;;;2.57;1.77;;;-0.20;99.90;0.20;96720.00;;;;4968316;28;20441;-68
2023/03/13 01:29:22;;;;;;;7.30;1.93;;;-0.30;99.90;0.50;96720.00;;;;4969865;28;20423;-69
2023/03/13 01:32:10;;;;;;;2.43;2.23;;;-0.30;99.90;0.70;96722.00;;;;4969569;28;20474;-70
2023/03/13 01:34:59;;;;;;;2.73;2.53;;;-0.20;99.90;0.40;96734.00;;;;4966129;28;20427;-70
2023/03/13 01:37:48;;;;;;;4.73;2.33;;;-0.20;99.90;0.50;96713.00;;;;4969762;28;20859;-71
2023/03/13 01:40:43;;;;;;;1.63;1.53;;;-0.20;99.90;0.40;96720.00;;;;4969976;28;20416;-72
2023/03/13 01:43:34;;;;;;;4.53;2.27;;;-0.20;99.90;0.60;96718.00;;;;4966967;28;20440;-72
2023/03/13 01:46:26;;;;;;;2.27;2.00;;;-0.20;99.90;0.60;96718.00;;;;4969699;28;21171;-70
2023/03/13 01:49:18;;;;;;;2.20;1.83;;;-0.20;99.90;0.60;96718.00;;;;4972611;28;20515;-70
2023/03/13 01:52:11;;;;;;;2.03;1.83;;;-0.10;99.90;0.30;96715.00;;;;4969805;28;20564;-72
2023/03/13 01:55:03;;;;;;;4.37;2.73;;;-0.30;99.90;0.30;96720.00;;;;4969691;28;21198;-71
2023/03/13 01:57:55;;;;;;;5.00;2.27;;;-0.20;99.90;0.30;96715.00;;;;4967890;28;20424;-72
2023/03/13 02:00:45;;;;;;;2.07;1.97;;;-0.20;99.90;0.10;96722.00;;;;4970074;28;20431;-69
2023/03/13 02:03:36;;;;;;;2.00;1.90;;;-0.30;99.90;0.10;96720.00;;;;4969041;28;20431;-71
2023/03/13 02:06:29;;;;;;;2.53;2.27;;;-0.40;99.90;-0.10;96720.00;;;;4968215;28;20434;-73
2023/03/13 02:09:24;;;;;;;2.77;2.27;;;-0.50;99.90;0.20;96716.00;;;;4967751;28;20428;-69
2023/03/13 02:12:18;;;;;;;1.70;1.60;;;-0.50;99.90;0.40;96725.00;;;;4967056;28;20467;-71
2023/03/13 02:15:14;;;;;;;2.40;2.20;;;-0.30;99.90;0.50;96715.00;;;;4966204;28;20952;-71
2023/03/13 02:18:03;;;;;;;2.50;2.30;;;-0.40;99.90;0.70;96722.00;;;;4970545;28;21237;-70
2023/03/13 02:20:58;;;;;;;2.90;2.57;;;-0.30;99.90;0.70;96721.00;;;;4969560;28;20427;-70
2023/03/13 02:23:57;;;;;;;4.00;2.73;;;2.20;99.90;0.50;96712.00;;;;4969546;28;20434;-71
2023/03/13 02:26:47;;;;;;;2.87;2.27;;;-0.10;99.90;0.00;96707.00;;;;4970265;28;20419;-70
2023/03/13 02:29:36;;;;;;;1.80;1.70;;;-0.30;99.90;0.10;96718.00;;;;4969642;28;20430;-70
2023/03/13 02:32:26;;;;;;;0.90;0.87;;;-0.40;99.90;-0.20;96701.00;;;;4968337;28;20466;-73
2023/03/13 02:35:19;;;;;;;1.47;1.37;;;-0.50;99.90;-0.60;96691.00;;;;4972087;28;20463;-69
2023/03/13 02:38:13;;;;;;;2.37;1.80;;;-0.60;99.90;-0.50;96683.00;;;;4965100;28;20942;-73
2023/03/13 02:41:03;;;;;;;2.60;1.87;;;-0.80;99.90;0.10;96698.00;;;;4964709;28;20466;-72
2023/03/13 02:43:53;;;;;;;2.77;1.97;;;-0.70;99.90;-0.10;96688.00;;;;4967394;28;20947;-68
2023/03/13 02:46:48;;;;;;;1.83;1.73;;;-0.70;99.90;0.10;96696.00;;;;4968287;28;20813;-69
2023/03/13 02:49:37;;;;;;;2.73;1.80;;;-0.60;99.90;-0.20;96688.00;;;;4968893;28;20415;-73
2023/03/13 02:52:31;;;;;;;2.63;2.43;;;-0.70;99.90;-0.30;96693.00;;;;4967894;28;20471;-68
2023/03/13 02:55:27;;;;;;;3.03;2.17;;;-0.70;99.90;-0.70;96696.00;;;;4969094;28;20428;-74
2023/03/13 02:58:16;;;;;;;1.87;1.57;;;-0.80;99.90;-0.50;96693.00;;;;4969488;28;20431;-73
2023/03/13 03:01:07;;;;;;;4.50;2.40;;;-1.00;99.90;-0.30;96694.00;;;;4969247;28;20465;-71
2023/03/13 03:03:56;;;;;;;2.67;2.47;;;-0.90;99.90;0.10;96700.00;;;;4963859;28;20437;-70
2023/03/13 03:06:45;;;;;;;2.50;2.30;;;-0.80;99.90;0.10;96701.00;;;;4968630;28;20973;-71
2023/03/13 03:09:33;;;;;;;5.07;1.80;;;-0.80;99.90;0.10;96699.00;;;;4964990;28;20458;-71
2023/03/13 03:12:22;;;;;;;1.70;1.60;;;-0.70;99.90;-0.20;96690.00;;;;4967983;28;20471;-71
2023/03/13 03:15:12;;;;;;;1.73;1.63;;;-0.70;99.90;-0.30;96684.00;;;;4968857;28;20439;-69
2023/03/13 03:18:02;;;;;;;3.27;2.33;;;-0.80;99.90;-0.10;96696.00;;;;4959857;28;20447;-70
2023/03/13 03:20:51;;;;;;;4.50;1.90;;;-0.70;99.90;0.00;96697.00;;;;4968293;28;20448;-71
2023/03/13 03:23:40;;;;;;;3.57;1.83;;;-0.70;99.90;-0.30;96693.00;;;;4968304;28;20431;-69
2023/03/13 03:26:29;;;;;;;2.13;2.03;;;-0.80;99.90;-0.60;96685.00;;;;4968229;28;20443;-73
2023/03/13 03:29:18;;;;;;;3.83;2.73;;;-0.80;99.90;-0.90;96681.00;;;;4968561;28;20447;-74
2023/03/13 03:32:07;;;;;;;1.43;1.23;;;-1.00;99.90;-1.10;96675.00;;;;4969151;28;20459;-75
2023/03/13 03:34:57;;;;;;;1.43;1.33;;;-1.10;99.90;-0.80;96669.00;;;;4966745;28;20427;-74
2023/03/13 03:37:46;;;;;;;2.07;1.97;;;-1.20;99.90;-0.50;96678.00;;;;4968950;28;20504;-73
2023/03/13 03:40:35;;;;;;;3.47;1.53;;;-1.30;99.90;-0.50;96675.00;;;;4969297;28;20826;-74
2023/03/13 03:43:24;;;;;;;2.67;1.60;;;-1.10;99.90;-0.50;96676.00;;;;4968626;28;21098;-72
2023/03/13 03:46:13;;;;;;;1.80;1.50;;;-1.10;99.90;-0.50;96676.00;;;;4968921;28;20424;-68
2023/03/13 03:49:02;;;;;;;4.03;2.60;;;-1.00;99.90;-0.50;96681.00;;;;4971100;28;20812;-70
2023/03/13 03:51:53;;;;;;;2.93;2.20;;;-1.00;99.90;-0.40;96674.00;;;;4965833;28;20486;-70
2023/03/13 03:54:42;;;;;;;2.73;2.53;;;-1.00;99.90;-0.50;96681.00;;;;4971955;28;20428;-70
2023/03/13 03:57:31;;;;;;;2.07;1.83;;;-0.90;99.90;-0.90;96665.00;;;;4976578;28;20942;-68
2023/03/13 04:00:20;;;;;;;1.90;1.80;;;-1.10;99.90;-1.00;96658.00;;;;4969838;28;20576;-67
2023/03/13 04:03:09;;;;;;;1.70;1.37;;;-1.20;99.90;-0.50;96673.00;;;;4969001;28;20450;-73
2023/03/13 04:05:58;;;;;;;1.90;1.77;;;-1.20;99.90;-0.70;96677.00;;;;4972606;28;20992;-73
2023/03/13 04:08:48;;;;;;;2.13;1.83;;;-1.20;99.90;-0.60;96671.00;;;;4970808;28;20917;-72
2023/03/13 04:11:37;;;;;;;1.97;1.87;;;0.60;99.90;-0.60;96656.00;;;;4964814;28;20475;-73
2023/03/13 04:14:26;;;;;;;3.17;2.10;;;-1.20;99.90;-0.80;96673.00;;;;4966749;28;20470;-69
2023/03/13 04:17:14;;;;;;;2.00;1.80;;;-1.20;99.90;-0.60;96667.00;;;;4968533;28;20440;-68
2023/03/13 04:20:05;;;;;;;2.63;2.30;;;-1.20;99.90;-0.60;96669.00;;;;4971077;28;20981;-69
2023/03/13 04:22:54;;;;;;;2.90;2.10;;;-1.20;99.90;-0.40;96685.00;;;;4973882;28;20463;-70
2023/03/13 04:25:44;;;;;;;6.33;1.70;;;-1.30;99.90;-0.80;96681.00;;;;4969461;28;20427;-74
2023/03/13 04:28:33;;;;;;;2.57;2.37;;;-1.00;99.90;-1.10;96675.00;;;;4966440;28;20439;-71
2023/03/13 04:31:22;;;;;;;2.43;2.33;;;-1.30;99.90;-0.90;96676.00;;;;4973540;28;20459;-69
2023/03/13 04:34:11;;;;;;;2.53;1.97;;;-1.30;99.90;-1.00;96667.00;;;;4966827;28;20604;-75
2023/03/13 04:36:59;;;;;;;2.00;1.90;;;-1.40;99.90;-1.10;96669.00;;;;4970973;28;20829;-71
2023/03/13 04:39:48;;;;;;;3.07;1.97;;;-1.40;99.90;-0.90;96672.00;;;;4966888;28;20443;-68
2023/03/13 04:42:38;;;;;;;2.13;2.03;;;-1.40;99.90;-0.50;96675.00;;;;4971873;28;20447;-69
2023/03/13 04:45:27;;;;;;;2.80;1.87;;;-1.30;99.90;-0.40;96670.00;;;;4970653;28;20960;-70
2023/03/13 04:48:16;;;;;;;2.03;1.93;;;-1.20;99.90;-0.90;96664.00;;;;4970196;28;20917;-71
2023/03/13 04:51:05;;;;;;;1.10;1.10;;;-0.90;99.90;-1.10;96657.00;;;;4968354;28;20450;-75
2023/03/13 04:53:54;;;;;;;1.80;1.70;;;-1.20;99.90;-1.10;96660.00;;;;4966935;28;20459;-75
2023/03/13 04:56:43;;;;;;;2.23;2.03;;;-1.30;99.90;-1.30;96659.00;;;;4968446;28;20937;-72
2023/03/13 04:59:33;;;;;;;2.47;1.70;;;-1.50;99.90;-1.10;96658.00;;;;4968241;28;20427;-74
2023/03/13 05:02:22;;;;;;;2.03;1.70;;;-1.50;99.90;-1.00;96658.00;;;;4968233;28;20454;-73
2023/03/13 05:05:11;;;;;;;2.10;1.03;;;-1.50;99.90;-1.20;96648.00;;;;4966150;28;20439;-74
2023/03/13 05:08:00;;;;;;;2.40;1.40;;;-1.50;99.90;-1.30;96651.00;;;;4984969;28;20442;-68
2023/03/13 05:10:48;;;;;;;1.20;1.10;;;-1.50;99.90;-1.10;96643.00;;;;4965118;28;20970;-67
2023/03/13 05:13:37;;;;;;;1.90;1.80;;;-1.40;99.90;-1.00;96644.00;;;;4988856;28;20458;-71
2023/03/13 05:16:28;;;;;;;1.80;1.67;;;-1.50;99.90;-0.50;96644.00;;;;4976107;28;20445;-73
2023/03/13 05:19:16;;;;;;;3.33;2.23;;;-1.30;99.90;-0.40;96644.00;;;;4971185;28;20450;-75
2023/03/13 05:22:05;;;;;;;5.03;2.03;;;-1.20;99.90;-0.90;96639.00;;;;4963956;28;20462;-67
2023/03/13 05:24:54;;;;;;;1.37;1.37;;;-1.20;99.90;-1.10;96631.00;;;;4966618;28;20784;-74
2023/03/13 05:27:43;;;;;;;3.80;2.77;;;-1.30;99.90;-1.10;96637.00;;;;4965078;28;20430;-71
2023/03/13 05:30:32;;;;;;;4.40;2.50;;;-1.10;99.90;-0.70;96645.00;;;;4958699;28;20427;-72
2023/03/13 05:33:22;;;;;;;3.37;1.90;;;-1.30;99.90;-0.60;96637.00;;;;4985798;28;20489;-68
2023/03/13 05:36:10;;;;;;;2.20;2.00;;;-1.20;99.90;-0.80;96628.00;;;;4968904;28;20434;-73
2023/03/13 05:38:59;;;;;;;3.90;2.07;;;-1.20;99.90;-0.80;96637.00;;;;4963728;28;20814;-73
2023/03/13 05:41:48;;;;;;;3.53;2.73;;;-1.20;99.90;-1.10;96625.00;;;;4967422;28;20985;-70
2023/03/13 05:44:37;;;;;;;4.23;2.33;;;-1.30;99.90;-1.00;96626.00;;;;4965640;28;20435;-74
2023/03/13 05:47:25;;;;;;;2.83;2.43;;;-1.20;99.90;-0.70;96611.00;;;;4967042;28;20447;-68
2023/03/13 05:50:16;;;;;;;1.13;0.97;;;-1.20;99.90;-0.80;96630.00;;;;4965298;28;20451;-74
2023/03/13 05:53:05;;;;;;;2.30;2.10;;;-1.10;99.90;-0.60;96624.00;;;;4964139;28;20448;-66
2023/03/13 05:55:53;;;;;;;2.33;2.13;;;-1.10;99.90;-0.40;96614.00;;;;4966137;28;20922;-75
2023/03/13 05:58:42;;;;;;;5.60;3.23;;;-0.90;99.90;-0.30;96608.00;;;;4965710;28;20434;-75
2023/03/13 06:01:31;;;;;;;3.07;2.63;;;-0.90;99.90;-0.20;96619.00;;;;4965232;28;20450;-70
2023/03/13 06:04:20;;;;;;;2.80;2.27;;;-0.90;99.90;-0.20;96631.00;;;;4966635;28;20431;-75
2023/03/13 06:07:10;;;;;;;3.70;3.10;;;-0.80;99.90;0.20;96627.00;;;;4956251;28;20432;-69
2023/03/13 06:09:59;;;;;;;1.60;1.50;;;-0.60;99.90;0.00;96607.00;;;;4957813;28;20462;-75
2023/03/13 06:12:53;;;;;;;2.17;1.70;;;-0.60;99.90;0.50;96621.00;;;;4983651;28;20469;-71
2023/03/13 06:15:42;;;;;;;3.83;3.33;;;-0.30;99.90;0.80;96623.00;;;;4968605;28;20966;-71
2023/03/13 06:18:31;;;;;;;2.40;2.20;;;-0.30;99.90;0.70;96622.00;;;;4968958;28;20434;-68
2023/03/13 06:21:20;;;;;;;2.17;1.80;;;-0.10;99.90;0.50;96618.00;;;;4967916;28;20462;-68
2023/03/13 06:24:10;;;;;;;3.13;2.67;;;-0.10;99.90;1.00;96615.00;;;;4966415;28;20798;-68
2023/03/13 06:26:59;;;;;;;4.80;3.30;;;0.00;99.90;0.90;96622.00;;;;4968891;28;20449;-74
2023/03/13 06:29:47;;;;;;;2.60;2.00;;;0.20;99.90;1.00;96627.00;;;;4965651;28;20431;-76
2023/03/13 06:32:36;;;;;;;5.33;2.60;;;0.30;99.90;0.90;96616.00;;;;4968271;28;20945;-71
2023/03/13 06:35:25;;;;;;;2.63;2.27;;;0.30;99.90;0.70;96624.00;;;;4967160;28;20848;-67
2023/03/13 06:38:14;;;;;;;2.60;1.87;;;0.30;99.90;1.00;96613.00;;;;4965529;28;20439;-68
2023/03/13 06:41:05;;;;;;;2.90;2.43;;;0.40;99.90;1.10;96604.00;;;;4965474;28;20427;-76
2023/03/13 06:43:53;;;;;;;4.03;3.43;;;0.40;99.90;1.10;96607.00;;;;4968327;28;20442;-68
2023/03/13 06:46:42;;;;;;;1.70;1.60;;;0.50;99.90;1.10;96608.00;;;;4966591;28;20450;-77
2023/03/13 06:49:31;;;;;;;44.17;39.43;;;0.60;99.90;1.80;96617.00;;;;4968742;28;20431;-71
2023/03/13 06:52:20;;;;;;;11.07;10.07;;;0.80;99.90;2.30;96622.00;;;;4969540;28;20502;-72
2023/03/13 06:55:14;;;;;;;2.90;2.60;;;1.00;99.90;2.30;96620.00;;;;4969174;28;20470;-78
2023/03/13 06:58:04;;;;;;;5.17;2.90;;;1.20;99.90;2.60;96626.00;;;;4965559;28;20428;-69
2023/03/13 07:00:53;;;;;;;3.70;2.77;;;1.40;99.90;2.80;96621.00;;;;4968810;28;20440;-72
2023/03/13 07:03:42;;;;;;;2.87;2.57;;;1.60;99.90;2.90;96634.00;;;;4965611;28;20442;-71
2023/03/13 07:06:31;;;;;;;4.37;3.17;;;1.80;99.90;3.10;96629.00;;;;4965386;28;20796;-70
2023/03/13 07:09:20;;;;;;;3.63;2.67;;;2.00;99.90;3.30;96632.00;;;;4966739;28;20427;-74
2023/03/13 07:12:10;;;;;;;3.73;2.47;;;2.10;99.90;3.30;96621.00;;;;4968357;28;21008;-70
2023/03/13 07:15:00;;;;;;;4.50;2.57;;;2.20;99.90;3.40;96618.00;;;;4969703;28;20459;-74
2023/03/13 07:17:49;;;;;;;3.80;3.40;;;2.30;99.90;3.70;96629.00;;;;4967961;28;20427;-71
2023/03/13 07:20:37;;;;;;;4.40;2.90;;;2.40;99.90;4.00;96627.00;;;;4965785;28;20416;-71
2023/03/13 07:23:29;;;;;;;8.87;3.70;;;2.60;99.90;4.20;96622.00;;;;4967082;28;20430;-71
2023/03/13 07:26:17;;;;;;;2.70;2.40;;;2.80;99.90;4.60;96615.00;;;;4965383;28;20450;-72
2023/03/13 07:29:06;;;;;;;4.70;3.10;;;3.00;99.90;4.20;96617.00;;;;4967252;28;20440;-71
2023/03/13 07:31:56;;;;;;;4.00;2.50;;;3.10;99.90;4.30;96597.00;;;;4967701;28;20454;-75
2023/03/13 07:34:45;;;;;;;8.27;2.63;;;3.20;99.90;4.40;96612.00;;;;4967178;28;20462;-71
2023/03/13 07:37:34;;;;;;;4.63;3.27;;;3.30;99.90;4.80;96618.00;;;;4966889;28;20424;-72
2023/03/13 07:40:23;;;;;;;3.37;3.07;;;3.40;99.90;4.90;96619.00;;;;4966822;28;20504;-72
2023/03/13 07:43:11;;;;;;;5.53;2.83;;;3.60;99.90;5.10;96602.00;;;;4965125;28;20451;-72
2023/03/13 07:46:03;;;;;;;6.33;3.27;;;3.80;99.90;5.40;96601.00;;;;4963999;28;20427;-71
2023/03/13 07:48:54;;;;;;;5.53;3.53;;;4.00;99.90;5.40;96600.00;;;;4967940;28;20426;-74
2023/03/13 07:51:43;;;;;;;4.67;3.77;;;4.10;99.90;5.80;96596.00;;;;4966876;28;20810;-74
2023/03/13 07:54:32;;;;;;;5.13;4.53;;;4.30;99.90;5.80;96594.00;;;;4970016;28;20853;-74
2023/03/13 07:57:21;;;;;;;8.13;4.47;;;4.50;99.90;6.00;96600.00;;;;4968379;28;20435;-73
2023/03/13 08:00:15;;;;;;;5.27;3.63;;;4.60;99.90;6.70;96593.00;;;;4964298;28;20424;-73
2023/03/13 08:03:05;;;;;;;11.20;3.83;;;4.90;99.90;6.50;96590.00;;;;4966306;28;21174;-73
2023/03/13 08:06:00;;;;;;;4.50;3.60;;;5.00;99.90;6.80;96582.00;;;;4968095;28;20195;-73
2023/03/13 08:08:49;;;;;;;6.53;3.40;;;5.10;99.90;6.70;96584.00;;;;4966095;28;20208;-73
2023/03/13 08:11:40;;;;;;;5.83;3.90;;;5.30;99.90;6.70;96598.00;;;;4965532;28;20241;-73
2023/03/13 08:14:29;;;;;;;16.17;4.47;;;5.40;99.90;6.80;96581.00;;;;4968429;28;20200;-74
2023/03/13 08:17:17;;;;;;;7.17;3.33;;;5.50;99.90;7.00;96591.00;;;;4965231;28;20195;-73
2023/03/13 08:20:08;;;;;;;5.73;4.03;;;5.60;99.90;7.30;96592.00;;;;4964352;28;20741;-73
2023/03/13 08:22:59;;;;;;;6.53;3.00;;;5.70;99.90;7.20;96595.00;;;;4965908;28;20231;-73
2023/03/13 08:25:47;;;;;;;6.83;3.33;;;5.80;99.90;7.10;96590.00;;;;4966086;28;20211;-72
2023/03/13 08:28:37;;;;;;;5.20;3.60;;;5.80;99.90;7.40;96596.00;;;;4964310;28;20207;-71
2023/03/13 08:31:29;;;;;;;6.90;3.33;;;5.80;99.90;7.30;96595.00;;;;4965927;28;20232;-71
2023/03/13 08:34:19;;;;;;;7.17;3.57;;;5.90;99.90;7.40;96585.00;;;;4964370;28;20207;-71
2023/03/13 08:37:07;;;;;;;8.87;3.63;;;6.00;99.90;7.30;96589.00;;;;4966268;28;20196;-72
2023/03/13 08:39:57;;;;;;;5.53;3.73;;;6.00;99.90;7.30;96591.00;;;;4962776;28;20222;-72
2023/03/13 08:42:46;;;;;;;10.17;4.47;;;6.10;99.90;7.20;96577.00;;;;4966180;28;20238;-71
2023/03/13 08:45:35;;;;;;;12.90;3.43;;;6.10;99.90;7.20;96573.00;;;;4967409;28;20567;-72
2023/03/13 08:48:24;;;;;;;10.07;4.23;;;6.10;99.90;7.40;96574.00;;;;4966303;28;20609;-72
2023/03/13 08:51:15;;;;;;;4.97;4.00;;;6.10;99.90;7.60;96573.00;;;;4964436;28;20206;-72
2023/03/13 08:54:05;;;;;;;8.13;3.90;;;6.20;99.90;7.80;96576.00;;;;4963309;28;20203;-72
2023/03/13 08:56:56;;;;;;;5.97;4.10;;;6.40;99.90;8.20;96572.00;;;;4966714;28;20238;-71
2023/03/13 08:59:45;;;;;;;4.50;2.77;;;6.50;99.90;8.30;96571.00;;;;4962103;28;20216;-71
2023/03/13 09:02:33;;;;;;;7.23;4.50;;;6.70;99.90;8.50;96574.00;;;;4965801;28;20947;-71
2023/03/13 09:05:22;;;;;;;5.30;2.97;;;6.80;99.90;9.10;96572.00;;;;4969812;28;20218;-71
2023/03/13 09:08:11;;;;;;;4.97;3.27;;;7.10;99.90;9.70;96575.00;;;;4963931;28;20215;-70
2023/03/13 09:11:03;;;;;;;6.47;3.80;;;7.40;99.90;10.10;96571.00;;;;4963515;28;20706;-71
2023/03/13 09:13:55;;;;;;;8.07;3.57;;;7.70;99.90;9.70;96575.00;;;;4966842;28;20204;-71
2023/03/13 09:16:45;;;;;;;8.37;4.07;;;8.00;99.90;10.10;96562.00;;;;4962573;28;20591;-71
2023/03/13 09:19:34;;;;;;;5.03;3.37;;;8.20;99.90;9.50;96556.00;;;;4966271;28;20203;-72
2023/03/13 09:22:23;;;;;;;6.97;3.00;;;8.30;99.90;9.30;96556.00;;;;4965742;28;20230;-74
2023/03/13 09:25:12;;;;;;;5.20;2.90;;;8.20;99.90;10.10;96553.00;;;;4963646;28;20210;-72
2023/03/13 09:28:01;;;;;;;5.23;3.13;;;8.40;99.90;10.40;96552.00;;;;4957986;28;20204;-71
2023/03/13 09:30:51;;;;;;;4.10;2.87;;;8.60;99.90;10.70;96556.00;;;;4968319;28;20587;-72
2023/03/13 09:33:40;;;;;;;6.60;3.47;;;8.80;99.90;10.70;96556.00;;;;4964386;28;20211;-72
2023/03/13 09:36:29;;;;;;;3.07;2.77;;;9.00;99.90;11.60;96549.00;;;;4966310;28;21226;-71
2023/03/13 09:39:18;;;;;;;7.83;3.03;;;9.30;99.90;11.40;96534.00;;;;4964730;28;20207;-73
2023/03/13 09:42:15;;;;;;;4.40;2.73;;;9.50;99.90;11.80;96527.00;;;;4967008;28;20227;-72
2023/03/13 09:45:13;;;;;;;3.73;2.70;;;9.80;99.90;12.30;96525.00;;;;4966747;28;20336;-71
2023/03/13 09:48:11;;;;;;;6.63;2.87;;;10.10;99.90;12.70;96526.00;;;;4967602;28;20623;-76
2023/03/13 09:51:07;;;;;;;7.07;3.03;;;10.40;99.90;12.80;96522.00;;;;4968814;28;20211;-73
2023/03/13 09:54:03;;;;;;;6.63;2.20;;;10.70;99.90;13.00;96535.00;;;;4967575;28;20199;-77
2023/03/13 09:56:57;;;;;;;3.27;2.30;;;11.10;98.70;13.00;96530.00;;;;4967912;28;20238;-72
2023/03/13 09:59:53;;;;;;;7.70;2.80;;;11.10;98.20;13.80;96520.00;;;;4965316;28;20588;-73
2023/03/13 10:02:46;;;;;;;4.13;2.57;;;11.40;98.50;14.10;96525.00;;;;4970867;28;20224;-73
2023/03/13 10:05:40;;;;;;;4.97;2.50;;;11.80;97.20;13.80;96515.00;;;;4964474;28;20697;-68
2023/03/13 10:08:32;;;;;;;6.47;2.40;;;12.00;95.20;14.70;96501.00;;;;4969507;28;20207;-66
2023/03/13 10:11:27;;;;;;;3.73;2.73;;;12.30;95.70;15.10;96508.00;;;;4964663;28;20238;-70
2023/03/13 10:14:23;;;;;;;7.00;2.27;;;12.60;94.80;15.10;96505.00;;;;4961160;28;20875;-67
2023/03/13 10:17:24;;;;;;;5.20;2.87;;;12.80;93.80;15.10;96509.00;;;;4969247;28;20618;-67
2023/03/13 10:20:23;;;;;;;8.17;2.47;;;13.00;92.60;15.50;96505.00;;;;4965102;28;20225;-67
2023/03/13 10:23:20;;;;;;;6.50;3.50;;;13.20;92.50;15.20;96504.00;;;;4963439;28;20220;-66
2023/03/13 10:26:16;;;;;;;5.13;2.50;;;13.30;91.20;16.00;96492.00;;;;4966140;28;20713;-67
2023/03/13 10:29:21;;;;;;;6.77;3.63;;;13.50;91.00;16.10;96490.00;;;;4964913;28;20210;-67
2023/03/13 10:32:14;;;;;;;6.07;3.77;;;13.70;90.40;16.10;96479.00;;;;4967249;28;20246;-68
2023/03/13 10:35:04;;;;;;;5.47;2.70;;;13.90;89.00;15.70;96465.00;;;;4968535;28;20211;-72
2023/03/13 10:38:05;;;;;;;3.97;2.00;;;13.90;86.30;16.90;96455.00;;;;4962284;28;20882;-72
2023/03/13 10:41:00;;;;;;;2.17;1.83;;;14.30;85.90;16.90;96462.00;;;;4964659;28;20201;-71
2023/03/13 10:43:55;;;;;;;3.67;1.83;;;14.50;80.60;15.90;96429.00;;;;4967803;28;20733;-71
2023/03/13 10:46:47;;;;;;;9.07;4.63;;;14.60;79.30;17.90;96424.00;;;;4966459;28;20196;-69
2023/03/13 10:49:49;;;;;;;2.53;2.07;;;15.00;80.00;18.00;96449.00;;;;4966933;28;20204;-69
2023/03/13 10:52:44;;;;;;;2.10;1.90;;;15.50;79.60;18.10;96460.00;;;;4969479;28;20222;-69
2023/03/13 10:55:33;;;;;;;1.60;1.20;;;15.70;76.10;18.00;96453.00;;;;4962202;28;20208;-69
2023/03/13 10:58:30;;;;;;;1.50;1.40;;;15.80;73.50;16.80;96440.00;;;;4966678;28;20329;-69
2023/03/13 11:01:23;;;;;;;3.07;1.70;;;15.70;69.10;17.20;96442.00;;;;4967264;28;20234;-69
2023/03/13 11:04:21;;;;;;;2.97;1.93;;;15.60;69.70;17.70;96452.00;;;;4970231;28;20204;-69
2023/03/13 11:07:17;;;;;;;3.33;2.20;;;15.60;71.90;17.80;96446.00;;;;4967850;28;20203;-68
2023/03/13 11:10:19;;;;;;;4.33;2.30;;;15.70;73.30;18.40;96445.00;;;;4964043;28;20618;-68
2023/03/13 11:13:31;;;;;;;2.30;2.10;;;15.80;73.70;18.50;96429.00;;;;4963819;28;20230;-68
2023/03/13 11:16:29;;;;;;;2.93;1.70;;;16.10;73.60;18.30;96428.00;;;;4967360;28;20571;-68
2023/03/13 11:19:42;;;;;;;2.40;2.00;;;16.30;70.90;18.30;96432.00;;;;4963165;28;20207;-68
2023/03/13 11:22:49;;;;;;;3.47;2.50;;;16.50;70.30;18.30;96428.00;;;;4948643;28;20227;-69
2023/03/13 11:25:48;;;;;;;3.83;1.90;;;16.40;69.80;18.30;96429.00;;;;4967317;28;20689;-69
2023/03/13 11:28:51;;;;;;;2.93;1.90;;;16.40;69.10;17.80;96429.00;;;;4964718;28;20204;-69
2023/03/13 11:31:44;;;;;;;3.20;2.23;;;16.30;68.40;16.80;96427.00;;;;4966049;28;20255;-67
2023/03/13 11:34:42;;;;;;;3.93;2.20;;;16.00;67.30;15.10;96420.00;;;;4964794;28;20195;-72
2023/03/13 11:37:35;;;;;;;3.17;2.30;;;15.30;67.60;16.30;96425.00;;;;4969176;28;20710;-67
2023/03/13 11:40:32;;;;;;;4.63;2.27;;;14.90;69.80;16.00;96419.00;;;;4966791;28;20207;-68
2023/03/13 11:43:47;;;;;;;2.93;2.20;;;14.80;70.30;16.00;96430.00;;;;4968698;28;20214;-67
2023/03/13 11:46:52;;;;;;;4.70;2.53;;;14.60;70.50;16.40;96427.00;;;;4965045;28;20210;-68
2023/03/13 11:49:58;;;;;;;3.20;2.53;;;14.60;72.00;16.90;96416.00;;;;4964606;28;20211;-67
2023/03/13 11:53:04;;;;;;;3.57;2.73;;;14.70;72.50;17.30;96415.00;;;;4965573;28;20223;-67
2023/03/13 11:56:07;;;;;;;8.03;3.47;;;14.90;73.50;16.90;96402.00;;;;4965915;28;20226;-69
2023/03/13 11:59:23;;;;;;;3.53;2.60;;;15.10;72.60;17.00;96404.00;;;;4968537;28;20195;-67
2023/03/13 12:02:22;;;;;;;8.10;3.80;;;15.10;72.40;17.10;96402.00;;;;4961514;28;20224;-68
2023/03/13 12:05:17;;;;;;;6.57;2.77;;;15.10;72.60;17.30;96404.00;;;;4958624;28;20207;-67
2023/03/13 12:08:13;;;;;;;5.87;3.00;;;15.20;73.30;17.40;96391.00;;;;4965430;28;20207;-67
2023/03/13 12:11:13;;;;;;;6.20;3.03;;;15.30;73.50;17.50;96390.00;;;;4959765;28;20207;-67
2023/03/13 12:14:11;;;;;;;10.53;2.90;;;15.40;73.20;17.60;96401.00;;;;4976731;28;20211;-67
2023/03/13 12:17:04;;;;;;;4.10;3.20;;;15.50;72.70;17.50;96378.00;;;;4967719;28;20227;-67
2023/03/13 12:20:00;;;;;;;4.70;3.97;;;15.50;72.10;17.90;96376.00;;;;4965292;28;20212;-67
2023/03/13 12:22:58;;;;;;;6.80;3.27;;;15.60;72.50;17.90;96367.00;;;;4961726;28;20223;-67
2023/03/13 12:25:54;;;;;;;7.07;4.10;;;15.80;72.20;18.80;96370.00;;;;4965288;28;20273;-67
2023/03/13 12:28:48;;;;;;;5.07;2.83;;;16.10;71.60;18.80;96358.00;;;;4961719;28;20688;-67
2023/03/13 12:31:44;;;;;;;8.17;4.03;;;16.40;71.40;19.30;96349.00;;;;4965173;28;20277;-68
2023/03/13 12:34:45;;;;;;;7.80;3.67;;;16.70;70.00;19.40;96368.00;;;;4962937;28;20203;-68
2023/03/13 12:37:43;;;;;;;5.67;4.07;;;17.00;69.20;19.50;96331.00;;;;4963414;28;20218;-68
2023/03/13 12:40:38;;;;;;;7.13;4.30;;;17.30;67.20;18.10;96360.00;;;;4965391;28;20207;-71
2023/03/13 12:43:32;;;;;;;5.30;3.20;;;17.60;65.30;19.30;96357.00;;;;4964330;28;20207;-68
2023/03/13 12:46:40;;;;;;;6.50;3.40;;;17.60;65.00;19.10;96368.00;;;;4964581;28;20200;-68
2023/03/13 12:50:05;;;;;;;5.07;4.37;;;17.60;64.10;18.70;96371.00;;;;4967510;28;20211;-68